Time;durP1;ratioP1;P1;durP2;ratioP2;P2;SDS_P1;SDS_P2;PMS_P1;PMS_P2;Temp;Humidity;BMP_temperature;BMP_pressure;BME280_temperature;BME280_humidity;BME280_pressure;Samples;Min_cycle;Max_cycle;Signal;HPM_P1;HPM_P2
2023/07/24 00:00:40;;;;;;;18.48;8.38;;;;;;;21.65;100.00;100863.16;4937543;29;20099;-81
2023/07/24 00:03:05;;;;;;;11.80;7.28;;;;;;;21.64;100.00;100852.41;4936715;29;20518;-79
2023/07/24 00:05:31;;;;;;;13.65;8.18;;;;;;;21.69;100.00;100863.63;4934490;28;20027;-79
2023/07/24 00:07:57;;;;;;;16.92;8.35;;;;;;;21.67;100.00;100861.09;4935365;29;20165;-81
2023/07/24 00:10:22;;;;;;;20.05;8.45;;;;;;;21.59;100.00;100852.09;4934664;29;20481;-79
2023/07/24 00:12:48;;;;;;;15.63;7.00;;;;;;;21.61;100.00;100856.38;4935242;29;20051;-80
2023/07/24 00:15:13;;;;;;;13.35;8.40;;;;;;;21.64;100.00;100855.13;4934316;29;20499;-80
2023/07/24 00:17:39;;;;;;;9.75;7.40;;;;;;;21.66;100.00;100848.44;4934176;29;20034;-81
2023/07/24 00:20:05;;;;;;;12.80;8.93;;;;;;;21.67;100.00;100852.88;4934332;29;20090;-80
2023/07/24 00:22:31;;;;;;;13.73;8.95;;;;;;;21.64;100.00;100846.94;4933401;29;20024;-80
2023/07/24 00:24:56;;;;;;;13.18;8.85;;;;;;;21.76;100.00;100858.22;4934365;29;20034;-80
2023/07/24 00:27:22;;;;;;;16.20;8.75;;;;;;;21.68;100.00;100842.75;4934441;29;20023;-80
2023/07/24 00:29:47;;;;;;;13.68;8.52;;;;;;;21.72;100.00;100846.81;4934138;29;20028;-80
2023/07/24 00:32:13;;;;;;;15.80;7.57;;;;;;;21.68;100.00;100846.34;4933895;29;20598;-80
2023/07/24 00:34:38;;;;;;;12.63;7.88;;;;;;;21.74;100.00;100855.69;4934334;29;20396;-79
2023/07/24 00:37:04;;;;;;;14.70;8.18;;;;;;;21.76;100.00;100847.28;4934160;29;20385;-79
2023/07/24 00:39:29;;;;;;;15.00;8.70;;;;;;;21.72;100.00;100841.34;4933870;29;20508;-79
2023/07/24 00:41:55;;;;;;;15.02;9.15;;;;;;;21.74;100.00;100839.28;4934361;29;20032;-81
2023/07/24 00:44:20;;;;;;;11.65;8.73;;;;;;;21.76;100.00;100845.41;4933594;29;20118;-81
2023/07/24 00:46:46;;;;;;;11.60;7.05;;;;;;;21.75;100.00;100834.63;4933672;29;20734;-80
2023/07/24 00:49:12;;;;;;;15.20;8.57;;;;;;;21.67;100.00;100850.13;4934070;29;20035;-79
2023/07/24 00:51:38;;;;;;;22.02;9.80;;;;;;;21.76;100.00;100839.91;4934624;29;20028;-79
2023/07/24 00:54:06;;;;;;;11.98;8.95;;;;;;;21.68;100.00;100837.28;4949813;28;20047;-79
2023/07/24 00:56:32;;;;;;;15.32;9.27;;;;;;;21.59;100.00;100836.53;4950183;28;20043;-79
2023/07/24 00:58:58;;;;;;;14.98;9.25;;;;;;;21.64;100.00;100833.25;4950455;28;20412;-79
2023/07/24 01:01:25;;;;;;;15.75;9.35;;;;;;;21.59;100.00;100841.16;4955367;28;20102;-80
2023/07/24 01:03:51;;;;;;;20.73;11.77;;;;;;;21.60;100.00;100838.25;4950210;28;20516;-82
2023/07/24 01:06:17;;;;;;;16.88;10.07;;;;;;;21.61;100.00;100829.00;4957673;28;20157;-79
2023/07/24 01:08:42;;;;;;;16.80;10.00;;;;;;;21.65;100.00;100841.25;4952215;28;20122;-80
2023/07/24 01:11:18;;;;;;;17.60;10.13;;;;;;;21.61;100.00;100839.94;4951397;28;20042;-79
2023/07/24 01:13:55;;;;;;;13.15;8.80;;;;;;;21.53;100.00;100837.31;4951976;28;20051;-79
2023/07/24 01:16:22;;;;;;;15.90;9.77;;;;;;;21.55;100.00;100839.88;4951387;28;20046;-79
2023/07/24 01:18:51;;;;;;;14.98;9.57;;;;;;;21.53;100.00;100820.88;4951903;28;20973;-79
2023/07/24 01:21:26;;;;;;;16.90;9.25;;;;;;;21.61;100.00;100829.00;4952333;28;20524;-80
2023/07/24 01:24:03;;;;;;;18.33;9.50;;;;;;;21.54;100.00;100825.31;4951928;28;20160;-79
2023/07/24 01:26:28;;;;;;;11.05;8.05;;;;;;;21.59;100.00;100831.06;4916646;29;20038;-79
2023/07/24 01:28:54;;;;;;;10.77;8.55;;;;;;;21.64;100.00;100839.56;4919259;29;20024;-78
2023/07/24 01:31:19;;;;;;;13.20;8.65;;;;;;;21.64;100.00;100833.25;4935659;29;20035;-79
2023/07/24 01:33:45;;;;;;;10.98;7.68;;;;;;;21.59;100.00;100825.59;4925434;29;20035;-80
2023/07/24 01:36:12;;;;;;;12.75;8.23;;;;;;;21.66;100.00;100833.88;4913742;29;20464;-80
2023/07/24 01:38:38;;;;;;;13.40;7.93;;;;;;;21.61;100.00;100823.53;4930356;29;20102;-82
2023/07/24 01:41:04;;;;;;;11.55;8.60;;;;;;;21.65;100.00;100827.56;4931905;29;20043;-80
2023/07/24 01:43:30;;;;;;;15.07;9.15;;;;;;;21.76;100.00;100836.31;4932966;29;20066;-79
2023/07/24 01:45:56;;;;;;;20.23;8.55;;;;;;;21.80;100.00;100837.66;4933239;29;20408;-80
2023/07/24 01:48:21;;;;;;;14.98;9.13;;;;;;;21.76;100.00;100837.19;4931880;29;20090;-80
2023/07/24 01:50:47;;;;;;;23.25;9.75;;;;;;;21.73;100.00;100832.09;4932354;29;20039;-80
2023/07/24 01:53:13;;;;;;;19.90;10.88;;;;;;;21.71;100.00;100834.19;4932049;29;20038;-80
2023/07/24 01:55:38;;;;;;;28.05;11.65;;;;;;;21.75;100.00;100831.88;4932922;29;20151;-80
2023/07/24 01:58:04;;;;;;;43.42;11.30;;;;;;;21.69;100.00;100831.63;4932681;29;20027;-81
2023/07/24 02:00:29;;;;;;;28.90;9.45;;;;;;;21.68;100.00;100823.59;4932383;29;20531;-80
2023/07/24 02:02:55;;;;;;;38.45;10.20;;;;;;;21.69;100.00;100836.25;4932404;29;20028;-80
2023/07/24 02:05:21;;;;;;;29.55;10.07;;;;;;;21.67;100.00;100833.72;4931324;29;20381;-79
2023/07/24 02:07:46;;;;;;;22.55;11.00;;;;;;;21.62;100.00;100830.69;4931813;29;20031;-79
2023/07/24 02:10:12;;;;;;;41.92;10.50;;;;;;;21.65;100.00;100834.91;4932290;29;20086;-81
2023/07/24 02:12:37;;;;;;;30.58;11.63;;;;;;;21.67;100.00;100844.66;4932696;29;20082;-78
2023/07/24 02:15:03;;;;;;;27.02;11.18;;;;;;;21.69;100.00;100842.56;4932435;29;20416;-83
2023/07/24 02:17:28;;;;;;;21.42;10.90;;;;;;;21.75;100.00;100848.31;4932643;29;20036;-80
2023/07/24 02:19:54;;;;;;;18.80;9.98;;;;;;;21.76;100.00;100848.13;4932416;29;20500;-80
2023/07/24 02:22:19;;;;;;;16.25;10.55;;;;;;;21.67;100.00;100854.75;4932823;29;20020;-79
2023/07/24 02:24:45;;;;;;;23.50;10.80;;;;;;;21.66;100.00;100853.91;4932104;29;20491;-79
2023/07/24 02:27:24;;;;;;;18.58;10.70;;;;;;;21.73;100.00;100864.09;4932089;29;20114;-80
2023/07/24 02:29:49;;;;;;;23.25;11.77;;;;;;;21.68;100.00;100860.03;4932308;29;20074;-79
2023/07/24 02:32:15;;;;;;;22.58;10.70;;;;;;;21.68;100.00;100862.75;4931978;29;20059;-78
2023/07/24 02:34:40;;;;;;;21.85;10.60;;;;;;;21.61;100.00;100853.63;4932162;29;20047;-79
2023/07/24 02:37:05;;;;;;;24.23;11.48;;;;;;;21.53;100.00;100856.47;4930824;29;20023;-80
2023/07/24 02:39:31;;;;;;;42.50;13.13;;;;;;;21.59;100.00;100855.69;4930226;29;20028;-79
2023/07/24 02:41:56;;;;;;;28.33;11.93;;;;;;;21.57;100.00;100866.00;4931635;29;20145;-78
2023/07/24 02:44:22;;;;;;;21.55;10.02;;;;;;;21.52;100.00;100865.72;4931576;29;20031;-79
2023/07/24 02:46:47;;;;;;;22.23;10.88;;;;;;;21.49;100.00;100849.69;4931535;29;20031;-78
2023/07/24 02:49:13;;;;;;;20.17;10.85;;;;;;;21.50;100.00;100847.78;4931313;29;20035;-79
2023/07/24 02:51:38;;;;;;;25.83;10.32;;;;;;;21.47;100.00;100846.28;4930926;29;20071;-78
2023/07/24 02:54:03;;;;;;;20.50;11.07;;;;;;;21.49;100.00;100846.94;4931499;29;20100;-77
2023/07/24 02:56:29;;;;;;;20.15;11.77;;;;;;;21.53;100.00;100850.13;4931457;29;20027;-79
2023/07/24 02:58:54;;;;;;;23.13;11.48;;;;;;;21.53;100.00;100853.72;4930986;29;20075;-77
2023/07/24 03:01:19;;;;;;;26.23;13.00;;;;;;;21.54;100.00;100849.97;4930808;29;20059;-79
2023/07/24 03:03:45;;;;;;;20.60;11.80;;;;;;;21.53;100.00;100841.91;4931130;29;20035;-81
2023/07/24 03:06:10;;;;;;;25.33;11.60;;;;;;;21.58;100.00;100834.84;4930573;29;20036;-77
2023/07/24 03:08:36;;;;;;;23.25;12.27;;;;;;;21.61;100.00;100842.69;4931726;29;20576;-79
2023/07/24 03:11:05;;;;;;;27.95;10.63;;;;;;;21.64;100.00;100845.03;4931042;29;20035;-76
2023/07/24 03:13:31;;;;;;;18.27;10.18;;;;;;;21.65;100.00;100835.78;4929717;28;20035;-78
2023/07/24 03:15:57;;;;;;;24.90;10.55;;;;;;;21.64;100.00;100831.34;4930293;29;20035;-77
2023/07/24 03:18:23;;;;;;;22.48;11.20;;;;;;;21.73;100.00;100831.22;4931263;29;20107;-79
2023/07/24 03:20:49;;;;;;;24.08;12.07;;;;;;;21.75;100.00;100826.41;4931540;29;20035;-77
2023/07/24 03:23:15;;;;;;;23.52;11.73;;;;;;;21.74;100.00;100831.06;4931149;29;20031;-78
2023/07/24 03:25:40;;;;;;;21.58;12.23;;;;;;;21.81;100.00;100839.31;4931713;29;20036;-76
2023/07/24 03:28:06;;;;;;;24.00;11.95;;;;;;;21.80;100.00;100826.69;4930991;29;20167;-79
2023/07/24 03:30:31;;;;;;;25.55;12.43;;;;;;;21.80;100.00;100832.19;4931280;29;20062;-79
2023/07/24 03:32:57;;;;;;;28.83;12.68;;;;;;;21.83;100.00;100831.78;4931484;29;20038;-82
2023/07/24 03:35:22;;;;;;;47.45;13.77;;;;;;;21.77;100.00;100824.34;4932267;29;20167;-78
2023/07/24 03:37:48;;;;;;;37.58;11.73;;;;;;;21.86;100.00;100836.88;4933407;29;20031;-78
2023/07/24 03:40:13;;;;;;;41.67;12.65;;;;;;;21.90;100.00;100838.19;4958454;28;20023;-81
2023/07/24 03:42:39;;;;;;;26.08;11.60;;;;;;;21.90;100.00;100835.47;4955275;28;20032;-77
2023/07/24 03:45:05;;;;;;;29.02;14.68;;;;;;;21.93;100.00;100849.63;4945881;29;20035;-79
2023/07/24 03:47:30;;;;;;;35.17;13.02;;;;;;;22.01;100.00;100845.94;4938931;29;20043;-77
2023/07/24 03:49:56;;;;;;;22.67;11.80;;;;;;;22.01;100.00;100851.41;4939437;29;20082;-77
2023/07/24 03:52:21;;;;;;;34.20;11.13;;;;;;;21.95;100.00;100846.72;4940046;29;20042;-77
2023/07/24 03:54:47;;;;;;;34.97;11.82;;;;;;;21.91;100.00;100851.72;4937578;29;20036;-77
2023/07/24 03:57:12;;;;;;;35.22;12.93;;;;;;;21.84;100.00;100849.91;4936565;29;20381;-76
2023/07/24 03:59:38;;;;;;;38.00;13.90;;;;;;;21.82;100.00;100858.31;4935660;29;20759;-78
2023/07/24 04:02:04;;;;;;;36.03;14.35;;;;;;;21.85;100.00;100857.09;4934667;29;20043;-77
2023/07/24 04:04:29;;;;;;;50.75;16.08;;;;;;;21.84;100.00;100853.50;4933746;29;20489;-77
2023/07/24 04:06:55;;;;;;;45.70;14.93;;;;;;;21.92;100.00;100872.59;4933076;29;20424;-79
2023/07/24 04:09:20;;;;;;;30.63;14.07;;;;;;;21.94;100.00;100870.50;4933636;29;20034;-78
2023/07/24 04:11:46;;;;;;;32.45;13.75;;;;;;;21.94;100.00;100877.88;4933778;29;20028;-78
2023/07/24 04:14:11;;;;;;;32.58;14.32;;;;;;;21.99;100.00;100880.88;4934052;29;20146;-77
2023/07/24 04:16:36;;;;;;;28.65;14.55;;;;;;;21.89;100.00;100880.34;4933644;29;20027;-77
2023/07/24 04:19:02;;;;;;;36.05;13.63;;;;;;;21.92;100.00;100879.97;4934313;29;20024;-77
2023/07/24 04:21:28;;;;;;;37.80;14.73;;;;;;;21.87;100.00;100880.50;4939375;29;20075;-78
2023/07/24 04:23:53;;;;;;;32.72;15.98;;;;;;;22.00;100.00;100888.06;4935732;29;20034;-78
2023/07/24 04:26:19;;;;;;;68.00;18.50;;;;;;;22.07;100.00;100886.25;4936658;29;20071;-78
2023/07/24 04:28:44;;;;;;;46.72;15.50;;;;;;;22.16;100.00;100882.34;4934771;29;20059;-78
2023/07/24 04:31:10;;;;;;;62.65;16.48;;;;;;;22.23;100.00;100880.53;4937193;29;20036;-79
2023/07/24 04:33:35;;;;;;;56.95;20.95;;;;;;;22.29;100.00;100881.66;4936684;29;20031;-78
2023/07/24 04:36:01;;;;;;;27.73;14.45;;;;;;;22.35;100.00;100873.50;4937052;29;20036;-78
2023/07/24 04:38:26;;;;;;;32.80;15.25;;;;;;;22.37;100.00;100871.41;4937521;29;20032;-78
2023/07/24 04:40:52;;;;;;;34.22;15.43;;;;;;;22.39;100.00;100872.03;4938309;29;20035;-82
2023/07/24 04:43:17;;;;;;;41.40;14.98;;;;;;;22.50;100.00;100879.78;4942760;29;20028;-79
2023/07/24 04:45:42;;;;;;;208.30;37.15;;;;;;;22.45;100.00;100874.00;4935521;29;20481;-80
2023/07/24 04:48:08;;;;;;;37.83;15.75;;;;;;;22.52;99.76;100871.34;4935193;29;20560;-78
2023/07/24 04:50:33;;;;;;;37.60;15.57;;;;;;;22.56;100.00;100873.50;4934379;29;20488;-79
2023/07/24 04:52:59;;;;;;;69.43;17.67;;;;;;;22.69;100.00;100872.78;4935236;29;20059;-79
2023/07/24 04:55:25;;;;;;;53.60;17.92;;;;;;;22.77;100.00;100869.91;4934894;29;20039;-78
2023/07/24 04:57:50;;;;;;;22.77;14.10;;;;;;;22.88;100.00;100869.38;4933940;29;20036;-77
2023/07/24 05:00:16;;;;;;;33.42;14.52;;;;;;;23.02;100.00;100875.81;4934924;29;20067;-82
2023/07/24 05:02:41;;;;;;;32.90;14.63;;;;;;;23.12;99.57;100873.53;4935298;29;20500;-79
2023/07/24 05:05:08;;;;;;;49.20;14.75;;;;;;;23.22;99.80;100874.06;4935200;29;20035;-78
2023/07/24 05:07:33;;;;;;;49.20;13.25;;;;;;;23.25;99.48;100871.75;4936559;29;20054;-81
2023/07/24 05:09:59;;;;;;;36.67;12.32;;;;;;;23.35;99.98;100879.63;4931997;29;20467;-77
2023/07/24 05:12:24;;;;;;;24.02;12.07;;;;;;;23.46;100.00;100886.47;4931824;29;20656;-78
2023/07/24 05:14:50;;;;;;;37.63;13.35;;;;;;;23.59;100.00;100892.91;4931825;29;20047;-77
2023/07/24 05:17:15;;;;;;;26.50;12.38;;;;;;;23.71;100.00;100895.91;4932174;29;20542;-80
2023/07/24 05:19:41;;;;;;;36.78;13.65;;;;;;;23.78;100.00;100888.56;4930918;29;20043;-78
2023/07/24 05:22:07;;;;;;;43.90;11.55;;;;;;;23.83;99.59;100884.16;4930444;29;20027;-79
2023/07/24 05:24:33;;;;;;;23.63;12.27;;;;;;;23.97;97.83;100898.81;4913676;29;20133;-78
2023/07/24 05:26:58;;;;;;;25.63;11.50;;;;;;;23.99;96.27;100887.59;4929868;29;20031;-78
2023/07/24 05:29:24;;;;;;;27.88;11.23;;;;;;;24.09;95.85;100893.56;4929690;29;20492;-80
2023/07/24 05:31:49;;;;;;;18.33;10.73;;;;;;;24.08;95.39;100873.47;4929992;29;20115;-78
2023/07/24 05:34:14;;;;;;;13.68;8.48;;;;;;;24.24;95.83;100886.88;4929639;29;20511;-79
2023/07/24 05:36:40;;;;;;;15.48;9.00;;;;;;;24.29;96.42;100877.97;4930087;29;20079;-79
2023/07/24 05:39:06;;;;;;;25.10;9.88;;;;;;;24.36;95.16;100885.22;4930612;29;20123;-80
2023/07/24 05:41:31;;;;;;;20.80;10.07;;;;;;;24.37;93.88;100864.06;4931707;29;20039;-77
2023/07/24 05:43:57;;;;;;;13.13;8.52;;;;;;;24.56;97.22;100876.13;4932121;29;20036;-82
2023/07/24 05:46:22;;;;;;;32.88;10.55;;;;;;;24.56;94.00;100878.88;4930979;28;20028;-78
2023/07/24 05:48:48;;;;;;;17.83;8.25;;;;;;;24.65;92.67;100878.47;4933571;29;20095;-82
2023/07/24 05:51:13;;;;;;;25.52;10.82;;;;;;;24.69;91.11;100879.75;4932975;29;20115;-78
2023/07/24 05:53:38;;;;;;;22.20;9.25;;;;;;;24.71;91.29;100874.88;4932241;29;20063;-78
2023/07/24 05:56:04;;;;;;;20.90;9.35;;;;;;;24.75;88.72;100878.06;4932272;29;20027;-78
2023/07/24 05:58:30;;;;;;;19.65;9.98;;;;;;;24.81;89.31;100878.09;4932607;29;20043;-79
2023/07/24 06:00:55;;;;;;;22.77;12.25;;;;;;;24.89;89.38;100875.13;4932561;29;20083;-80
2023/07/24 06:03:22;;;;;;;20.20;10.50;;;;;;;24.96;89.87;100866.88;4931798;29;20039;-78
2023/07/24 06:05:54;;;;;;;34.13;14.57;;;;;;;25.08;89.86;100878.06;4932018;29;20035;-81
2023/07/24 06:08:20;;;;;;;48.97;12.98;;;;;;;25.08;88.53;100862.41;4931842;29;20079;-81
2023/07/24 06:10:48;;;;;;;25.65;9.23;;;;;;;25.15;86.49;100873.41;4932051;29;20032;-78
2023/07/24 06:13:14;;;;;;;24.20;10.13;;;;;;;25.26;88.88;100867.25;4931036;29;20027;-78
2023/07/24 06:15:40;;;;;;;15.85;8.75;;;;;;;25.32;88.83;100866.38;4931758;29;20397;-78
2023/07/24 06:18:05;;;;;;;19.85;7.97;;;;;;;25.23;86.56;100864.91;4927674;29;20031;-79
2023/07/24 06:20:31;;;;;;;32.65;10.35;;;;;;;25.31;85.52;100862.81;4913163;29;20036;-78
2023/07/24 06:22:56;;;;;;;47.70;13.65;;;;;;;25.39;83.97;100869.97;4923258;29;20400;-80
2023/07/24 06:25:22;;;;;;;28.65;11.70;;;;;;;25.45;81.51;100858.09;4932614;29;20043;-80
2023/07/24 06:27:47;;;;;;;59.35;17.17;;;;;;;25.52;82.33;100863.63;4932446;29;20028;-79
2023/07/24 06:30:12;;;;;;;26.52;12.18;;;;;;;25.64;84.05;100862.75;4930828;29;20043;-76
2023/07/24 06:32:38;;;;;;;20.48;7.60;;;;;;;25.60;79.95;100868.88;4930062;29;20046;-76
2023/07/24 06:35:04;;;;;;;17.25;8.52;;;;;;;25.58;75.26;100858.09;4931731;29;20036;-78
2023/07/24 06:37:29;;;;;;;15.77;7.75;;;;;;;25.57;74.19;100861.91;4931039;29;20672;-81
2023/07/24 06:39:55;;;;;;;13.50;7.50;;;;;;;25.60;77.01;100846.84;4931577;29;20083;-80
2023/07/24 06:42:20;;;;;;;12.93;6.90;;;;;;;25.65;71.74;100858.94;4914498;29;20023;-82
2023/07/24 06:44:45;;;;;;;15.23;6.95;;;;;;;25.62;72.80;100856.63;4915375;29;20036;-80
2023/07/24 06:47:11;;;;;;;25.13;7.18;;;;;;;25.66;73.03;100849.59;4918816;29;20038;-82
2023/07/24 06:49:36;;;;;;;19.73;7.00;;;;;;;25.73;72.24;100853.16;4929624;29;20027;-80
2023/07/24 06:52:02;;;;;;;38.03;7.18;;;;;;;25.69;68.79;100851.06;4916570;29;20038;-80
2023/07/24 06:54:27;;;;;;;20.25;6.63;;;;;;;25.76;67.09;100855.47;4930563;29;20094;-84
2023/07/24 06:56:53;;;;;;;14.52;5.38;;;;;;;25.80;66.87;100851.25;4930487;29;20494;-84
2023/07/24 06:59:18;;;;;;;13.50;6.07;;;;;;;25.81;65.21;100852.91;4931738;29;20062;-84
2023/07/24 07:01:44;;;;;;;12.63;4.80;;;;;;;25.83;63.91;100848.03;4918980;29;20084;-85
2023/07/24 07:04:09;;;;;;;17.65;6.28;;;;;;;25.91;70.32;100835.91;4912858;29;20028;-86
2023/07/24 07:06:35;;;;;;;10.45;5.18;;;;;;;25.88;66.44;100828.94;4913979;29;20104;-85
2023/07/24 07:09:00;;;;;;;19.27;6.13;;;;;;;25.89;62.90;100832.53;4913717;29;20079;-81
2023/07/24 07:11:25;;;;;;;14.32;4.25;;;;;;;25.84;51.91;100833.19;4913856;29;20036;-88
2023/07/24 07:13:51;;;;;;;18.17;4.43;;;;;;;25.98;50.51;100845.84;4939160;29;20146;-82
2023/07/24 07:16:18;;;;;;;8.63;3.75;;;;;;;25.76;50.49;100811.41;4940401;29;20035;-82
2023/07/24 07:18:44;;;;;;;36.45;6.40;;;;;;;25.83;52.36;100828.75;4949451;28;20479;-85
2023/07/24 07:21:09;;;;;;;7.47;3.45;;;;;;;25.85;51.93;100825.75;4940925;28;20063;-82
2023/07/24 07:23:35;;;;;;;20.20;4.45;;;;;;;25.86;50.65;100828.31;4935813;29;20637;-82
2023/07/24 07:26:00;;;;;;;7.00;4.30;;;;;;;25.95;51.46;100831.66;4935825;29;20035;-81
2023/07/24 07:28:26;;;;;;;10.07;3.97;;;;;;;25.89;52.62;100833.38;4935301;29;20038;-82
2023/07/24 07:30:51;;;;;;;22.98;5.38;;;;;;;25.82;54.71;100818.78;4935174;29;20115;-80
2023/07/24 07:33:17;;;;;;;20.33;6.18;;;;;;;25.95;57.50;100827.00;4941074;28;20031;-85
2023/07/24 07:35:47;;;;;;;20.58;5.30;;;;;;;26.04;57.33;100840.50;4936678;29;20407;-82
2023/07/24 07:38:13;;;;;;;10.45;4.55;;;;;;;26.07;57.64;100810.59;4939658;29;20032;-83
2023/07/24 07:40:41;;;;;;;15.35;4.80;;;;;;;26.03;59.18;100806.56;4942024;29;20046;-84
2023/07/24 07:43:07;;;;;;;14.25;5.47;;;;;;;26.15;61.17;100828.78;4935978;29;20043;-82
2023/07/24 07:45:32;;;;;;;10.85;5.40;;;;;;;26.15;61.10;100803.94;4917581;29;20047;-80
2023/07/24 07:47:59;;;;;;;34.15;7.22;;;;;;;26.30;61.99;100823.81;4934018;29;20039;-82
2023/07/24 07:50:24;;;;;;;14.82;6.18;;;;;;;26.24;63.51;100802.66;4934112;29;20066;-81
2023/07/24 07:52:51;;;;;;;9.40;5.45;;;;;;;26.27;62.34;100816.00;4918282;29;20141;-77
2023/07/24 07:55:20;;;;;;;18.25;5.88;;;;;;;26.24;65.06;100799.91;4935199;29;20023;-78
2023/07/24 07:57:46;;;;;;;19.83;5.53;;;;;;;26.36;65.15;100811.94;4918685;29;20477;-80
2023/07/24 08:00:12;;;;;;;7.28;4.97;;;;;;;26.33;67.18;100795.78;4922241;29;20044;-83
2023/07/24 08:02:40;;;;;;;18.60;6.35;;;;;;;26.43;68.07;100790.63;4933595;29;20107;-88
2023/07/24 08:05:08;;;;;;;20.20;5.97;;;;;;;26.55;66.77;100805.41;4937039;28;20415;-86
2023/07/24 08:07:33;;;;;;;15.13;5.93;;;;;;;26.58;67.24;100793.06;4936002;29;20032;-83
2023/07/24 08:09:59;;;;;;;23.88;6.78;;;;;;;26.73;68.70;100807.34;4954106;28;20074;-85
2023/07/24 08:12:24;;;;;;;16.60;5.75;;;;;;;26.73;69.36;100799.94;4949266;28;20503;-85
2023/07/24 08:14:50;;;;;;;16.80;4.75;;;;;;;26.72;61.81;100817.56;4937158;29;20114;-86
2023/07/24 08:17:15;;;;;;;8.13;4.63;;;;;;;26.59;62.46;100806.66;4921139;29;20424;-87
2023/07/24 08:19:41;;;;;;;12.15;4.72;;;;;;;26.54;63.25;100803.72;4928780;29;20509;-91
2023/07/24 08:22:06;;;;;;;8.90;4.00;;;;;;;26.64;63.97;100825.25;4977008;28;20149;-89
2023/07/24 08:24:35;;;;;;;10.73;5.97;;;;;;;26.64;66.48;100808.72;4973144;28;20083;-91
2023/07/24 08:27:01;;;;;;;15.48;6.80;;;;;;;26.69;68.46;100809.75;4965858;28;20031;-89
2023/07/24 08:29:27;;;;;;;23.95;6.50;;;;;;;26.72;65.76;100812.06;4978917;28;20031;-90
2023/07/24 08:31:52;;;;;;;21.73;5.63;;;;;;;26.65;65.77;100783.66;4961199;28;20019;-92
2023/07/24 08:34:21;;;;;;;16.50;5.10;;;;;;;26.72;64.61;100778.94;4960742;28;20039;-89
2023/07/24 08:36:47;;;;;;;12.98;4.78;;;;;;;26.76;63.74;100785.69;4945605;29;20031;-90
2023/07/24 08:39:12;;;;;;;8.95;4.72;;;;;;;26.81;63.42;100788.66;4940371;29;20048;-83
2023/07/24 08:41:38;;;;;;;17.45;5.32;;;;;;;26.81;64.70;100774.84;4938179;29;20114;-82
2023/07/24 08:44:07;;;;;;;10.30;4.97;;;;;;;26.96;63.82;100794.66;4938623;29;20067;-82
2023/07/24 08:46:38;;;;;;;24.10;4.22;;;;;;;27.08;57.21;100799.41;4922824;29;20024;-85
2023/07/24 08:49:04;;;;;;;12.57;3.88;;;;;;;27.00;57.20;100789.53;4936215;29;20035;-87
2023/07/24 08:51:31;;;;;;;11.93;4.82;;;;;;;26.90;59.17;100779.00;4935971;29;20015;-81
2023/07/24 08:53:57;;;;;;;10.25;3.72;;;;;;;26.94;59.70;100782.97;4933013;29;20063;-86
2023/07/24 08:56:23;;;;;;;11.52;4.38;;;;;;;26.92;58.94;100785.13;4931774;29;20039;-85
2023/07/24 08:58:49;;;;;;;12.38;4.15;;;;;;;26.85;58.42;100773.31;4935302;29;20028;-87
2023/07/24 09:01:14;;;;;;;4.85;3.63;;;;;;;26.85;60.64;100765.03;4935178;29;20062;-85
2023/07/24 09:03:40;;;;;;;11.68;3.88;;;;;;;27.02;62.97;100790.13;4935207;29;20086;-85
2023/07/24 09:06:10;;;;;;;13.50;4.57;;;;;;;26.82;64.25;100779.28;4934813;29;20122;-86
2023/07/24 09:08:40;;;;;;;5.93;3.78;;;;;;;26.77;65.10;100781.84;4935523;29;20028;-85
2023/07/24 09:11:07;;;;;;;10.93;4.72;;;;;;;26.73;65.76;100780.59;4935033;29;20034;-86
2023/07/24 09:13:35;;;;;;;13.43;4.88;;;;;;;26.79;64.96;100796.25;4935981;29;20480;-86
2023/07/24 09:16:01;;;;;;;10.32;4.28;;;;;;;26.69;63.58;100787.66;4934790;29;20063;-86
2023/07/24 09:18:27;;;;;;;11.93;4.35;;;;;;;26.68;66.13;100794.25;4935607;29;20024;-87
2023/07/24 09:20:52;;;;;;;13.88;4.13;;;;;;;26.67;66.62;100769.63;4934283;29;20067;-86
2023/07/24 09:23:27;;;;;;;10.00;5.18;;;;;;;26.70;64.60;100769.16;4933983;29;20031;-89
2023/07/24 09:25:53;;;;;;;8.52;3.83;;;;;;;26.60;62.96;100771.63;4918748;29;20039;-90
2023/07/24 09:28:20;;;;;;;21.88;5.78;;;;;;;26.69;63.70;100784.91;4936197;29;20031;-86
2023/07/24 09:30:57;;;;;;;9.20;4.57;;;;;;;26.67;63.77;100792.56;4936445;29;20036;-86
2023/07/24 09:33:33;;;;;;;9.52;4.00;;;;;;;26.55;64.10;100774.19;4918596;29;20058;-87
2023/07/24 09:36:04;;;;;;;28.58;5.43;;;;;;;26.61;64.83;100765.88;4935401;29;20498;-88
2023/07/24 09:38:29;;;;;;;9.65;4.07;;;;;;;26.79;64.14;100779.69;4935525;29;20081;-88
2023/07/24 09:40:56;;;;;;;8.45;3.75;;;;;;;26.64;61.26;100759.88;4936604;29;20157;-87
2023/07/24 09:43:24;;;;;;;9.57;3.47;;;;;;;26.92;61.99;100790.66;4935782;29;20032;-87
2023/07/24 09:45:57;;;;;;;10.85;4.00;;;;;;;26.71;61.37;100744.13;4936837;29;20024;-88
2023/07/24 09:48:27;;;;;;;9.55;4.25;;;;;;;26.95;62.23;100770.88;4939478;29;20035;-86
2023/07/24 09:50:57;;;;;;;13.65;4.13;;;;;;;26.76;61.50;100741.50;4929396;29;20138;-86
2023/07/24 09:53:52;;;;;;;12.68;3.90;;;;;;;26.77;60.87;100745.13;4900758;29;20071;-87
2023/07/24 09:56:21;;;;;;;7.05;3.88;;;;;;;26.85;62.65;100750.38;4899680;29;20039;-87
2023/07/24 09:58:49;;;;;;;11.20;4.13;;;;;;;26.94;62.58;100755.38;4915765;29;20040;-89
2023/07/24 10:01:16;;;;;;;11.23;4.28;;;;;;;27.06;61.73;100740.81;4899276;29;20131;-87
2023/07/24 10:03:49;;;;;;;22.42;5.18;;;;;;;27.15;61.29;100740.28;4899341;29;20028;-89
2023/07/24 10:06:20;;;;;;;10.30;4.00;;;;;;;27.30;61.57;100751.81;4900745;29;20088;-89
2023/07/24 10:08:55;;;;;;;7.68;3.97;;;;;;;27.25;61.83;100732.28;4900144;29;20123;-87
2023/07/24 10:14:49;;;;;;;8.15;4.38;;;;;;;27.62;62.60;100737.78;4933376;29;20039;-91
2023/07/24 10:17:35;;;;;;;10.43;4.53;;;;;;;28.01;62.85;100762.97;4911632;28;20044;-87
2023/07/24 10:20:08;;;;;;;15.80;4.32;;;;;;;27.92;62.58;100719.31;4897237;29;20049;-86
2023/07/24 10:22:48;;;;;;;21.00;6.88;;;;;;;27.98;62.52;100719.19;4881902;29;20429;-88
2023/07/24 10:25:18;;;;;;;33.67;6.93;;;;;;;28.25;62.93;100740.94;4913394;29;20043;-87
2023/07/24 10:27:49;;;;;;;17.25;5.30;;;;;;;28.17;62.93;100722.75;4915419;29;20134;-89
2023/07/24 10:30:16;;;;;;;6.70;4.32;;;;;;;28.39;62.35;100739.63;4915877;29;20135;-88
2023/07/24 10:32:48;;;;;;;12.07;4.30;;;;;;;28.51;61.63;100757.94;4916311;29;20146;-87
2023/07/24 10:35:20;;;;;;;13.05;4.75;;;;;;;28.20;62.13;100715.91;4918620;29;20044;-90
2023/07/24 10:37:46;;;;;;;14.90;5.13;;;;;;;28.41;62.43;100748.53;4917317;29;20070;-88
2023/07/24 10:40:32;;;;;;;10.82;4.28;;;;;;;28.31;63.40;100723.38;4915235;29;20162;-87
2023/07/24 10:43:08;;;;;;;9.60;4.43;;;;;;;28.34;63.08;100733.97;4914655;29;20044;-88
2023/07/24 10:45:46;;;;;;;12.88;4.60;;;;;;;28.53;63.11;100747.47;4914502;29;20067;-88
2023/07/24 10:48:12;;;;;;;8.93;4.38;;;;;;;28.55;63.17;100752.78;4914017;29;20127;-89
2023/07/24 10:50:42;;;;;;;8.35;4.55;;;;;;;28.24;63.00;100717.97;4914885;29;20127;-89
2023/07/24 10:53:20;;;;;;;13.73;5.55;;;;;;;28.20;64.20;100704.84;4899527;29;20068;-88
2023/07/24 10:55:47;;;;;;;12.38;5.00;;;;;;;28.33;63.70;100710.16;4916143;29;20421;-88
2023/07/24 10:58:15;;;;;;;9.45;4.07;;;;;;;28.54;63.51;100723.41;4881314;29;20037;-89
2023/07/24 11:00:44;;;;;;;23.23;4.15;;;;;;;28.62;63.68;100704.50;4878482;29;20057;-89
2023/07/24 11:03:12;;;;;;;13.07;4.38;;;;;;;28.70;63.42;100694.19;4877779;29;20041;-88
2023/07/24 11:05:42;;;;;;;16.63;4.40;;;;;;;28.82;63.81;100720.78;4889791;29;20041;-88
2023/07/24 11:08:20;;;;;;;9.95;5.65;;;;;;;28.76;63.28;100688.53;4896175;29;20115;-87
2023/07/24 11:10:49;;;;;;;10.75;5.03;;;;;;;28.92;62.93;100693.34;4896917;29;20036;-88
2023/07/24 11:13:19;;;;;;;10.13;4.90;;;;;;;29.03;62.62;100698.00;4897219;29;20063;-86